Login to view Products
 
Sunday, May 31, 2020 (14:15 UTC)
Abu Dhabi International Airport
Last Updated: 31-May-2020 (14:14Z)
Wind Dir/Speed: NW at 11 kt
Temperature: 36.2°C
Rel. Humidity: 44 %
Pressure: 1002.7 hPa
Visibility: 10000 m
ACTUALS:
  • METAR OMAA 311400Z 33012KT CAVOK 37/23 Q1002 NOSIG
  • TAF OMAA 311100Z 3112/0118 31014KT 8000 NSC BECMG 3116/3118 VRB02KT BECMG 0100/0102 19010KT PROB30 TEMPO 0102/0106 19015G25KT 3000 BLDU BECMG 0107/0109 30012KT BECMG 0116/0118 08005KT=
D:\Input Parser\Destinations\Final\11\OMAAL12181100429672156.txt
1